METAR Data
IDs: Format: Raw Decoded Include TAF

Data at: 2332 UTC 29 May 2020

METAR for:LEBZ (Badajoz Arpt, EX, SP)
Text:LEBZ 292300Z AUTO 26004KT 5000 HZ NCD 23/14 Q1012
Temperature: 23.0°C ( 73°F)
Dewpoint: 14.0°C ( 57°F) [RH = 57%]
Pressure (altimeter):29.88 inches Hg (1012.0 mb)
Winds:from the W (260 degrees) at 5 MPH (4 knots; 2.1 m/s)
Visibility: 3 sm ( 5 km)
Ceiling:at least 12,000 feet AGL
Clouds:sky clear below 12,000 feet AGL
Weather:HZ (haze)

TAF for:LEBZ (Badajoz Arpt, EX, SP) issued at 2300 UTC 29 May 2020
Text:TAF LEBZ 292300Z 3000/3024 30005KT CAVOK TX35/3016Z TN19/3005Z
Forecast period:0000 UTC 30 May 2020 to 0000 UTC 31 May 2020
Forecast type:FROM: standard forecast or significant change
Winds:from the WNW (300 degrees) at 6 MPH (5 knots; 2.6 m/s)
Visibility:6 or more sm (10+ km)
Clouds:missing
Text:PROB30
Forecast period:0800 to 1800 UTC 30 May 2020
Forecast type:TEMPORARY: The following changes expected for less than half the time period
Winds:from the SW (220 degrees) at 12 MPH (10 knots; 5.1 m/s)
Clouds:missing